Starksboro, Vermont
Current Conditions -  °F | °C
As of 11:54 AM on Saturday 20 Dec 2014 (Local Time) from KBTV Reporting Station
Few Clouds Few Clouds  
Wind Chill: -4°   Ceiling: Unl
Heat Index: -4°   Visibility: 10mi
Dew Point: -10°   Wind: 0mph
Humidity: 65%   Direction: NA
Pressure: 30.3"   Gusts: NA
Location:  44.23°N, 73.06°W
Report Text: KBTV 201654Z 00000KT 10SM FEW080 FEW120 M04/M10 A3030 RMK AO2 SLP267 T10441100
Loading
Personal Weather Stations






























Interactive Weather Map New forecast layout! Learn more

10-Day Weather Forecast

Advertisements
Track Severe Weather on mobile